PADG

Details ICAO PADG
Name RED DOG
Region USA (Alaska)
Timezone America/Nome (UTC-9.0)
Plans Departing 3
Arriving 6
Stats Elevation 974 ft / 297 m (AMSL)
Location 68.032101° -162.899183°
Runways 1
Magnetic Variation 11.436° E
Sunrise Unknown / Unknown
Sunset Unknown / Unknown
Advertisement - Login to hide

Runways

ID Width Length Bearing (true) Bearing (mag) Surface Threshold Offset Overrun Length
02 100 ft / 30 m 5,735 ft / 1,748 m 41.03° 29.59° Asphalt 300 ft / 91 m 0 ft / 0 m
20 100 ft / 30 m 5,735 ft / 1,748 m 221.06° 209.62° Asphalt 300 ft / 91 m 0 ft / 0 m

Map

Weather


0- 5 10 15 20 25 30 35+ Temperature / ° C

Clouds and Precipitation
Forecast for 2017-12-14 00:00 UTC. Updated an hour ago

Ground ~20,000 ft ~40,000 ft Winds

METAR

PADG 132059Z 10022KT 4SM BR OVC018 M02/M02 A2955

TAF

Not found

Frequencies

Unicom 122.80 MHz UNIC
Warning: Do not use this data for real-world aviation or navigation. No guarantee of current accuracy is given.